Toledo, Iowa
Current Conditions -  °F | °C
As of 3:53 AM on Friday 28 Nov 2014 (Local Time) from KMIW Reporting Station
Clear Clear  
Wind Chill: -4°   Ceiling: Unl
Heat Index: 14°   Visibility: 10mi
Dew Point:   Wind: 21mph
Humidity: 71%   Direction: 140°SE
Pressure: 30.11"   Gusts: NA
Location:  42°N, 92.58°W
Report Text: KMIW 280953Z AUTO 14018KT 10SM CLR M10/M14 A3011 RMK AO2 SLP219 T11001144
Loading
Personal Weather Stations






























Interactive Weather Map New forecast layout! Learn more

10-Day Weather Forecast

Advertisements
Track Severe Weather on mobile